PGT5506 EHRD-LTAI
Flight info
| Callsign | PGT5506 |
|---|---|
| Flight time | 3h 31m |
| Altitude | 33000 |
| Route | LUNIX Z739 MISGO DCT TIVUN DCT ESAMA DCT OSBIT DCT TENLO DCT LAMSI DCT SASAL DCT BABIT/N0452F350 DCT NEPOS DCT NISVA N131 RODIP UN131 KULAR UT39 NESIL |
| Aircraft | A320/M-SDE3FGHIRWY/LB1 |
Departure
| Time | 2026-05-04 10:51 |
|---|---|
| Airport | Rotterdam The Hague Airport (EHRD) |
Arrival
| Time | 2026-05-04 14:23 |
|---|---|
| Airport | Antalya International Airport (LTAI) |
| Time | Latitude | Longitude | Altitude | Speed | Heading |
|---|---|---|---|---|---|
| 2026-05-04 10:21 | 51.95015 | 4.43506 | -5 ft | 0 kts | 326° |
| 2026-05-04 10:25 | 51.95015 | 4.43507 | -6 ft | 0 kts | 324° |
| 2026-05-04 10:44 | 51.95074 | 4.43534 | -6 ft | 3 kts | 56° |
| 2026-05-04 10:45 | 51.95085 | 4.43563 | -6 ft | 4 kts | 57° |
| 2026-05-04 10:45 | 51.95109 | 4.43616 | -6 ft | 7 kts | 40° |
| 2026-05-04 10:45 | 51.95163 | 4.43595 | -6 ft | 9 kts | 327° |
| 2026-05-04 10:45 | 51.95223 | 4.43532 | -6 ft | 11 kts | 327° |
| 2026-05-04 10:46 | 51.95294 | 4.43534 | -5 ft | 12 kts | 41° |
| 2026-05-04 10:46 | 51.95343 | 4.43656 | -5 ft | 14 kts | 58° |
| 2026-05-04 10:46 | 51.95399 | 4.43794 | -5 ft | 15 kts | 56° |
| 2026-05-04 10:46 | 51.95459 | 4.43945 | -5 ft | 16 kts | 57° |
| 2026-05-04 10:47 | 51.95523 | 4.44101 | -5 ft | 17 kts | 57° |
| 2026-05-04 10:47 | 51.95588 | 4.44264 | -5 ft | 18 kts | 57° |
| 2026-05-04 10:47 | 51.95655 | 4.44433 | -5 ft | 18 kts | 57° |
| 2026-05-04 10:47 | 51.95725 | 4.44609 | -5 ft | 19 kts | 57° |
| 2026-05-04 10:49 | 51.96167 | 4.45230 | -5 ft | 6 kts | 265° |
| 2026-05-04 10:49 | 51.96151 | 4.45177 | -5 ft | 6 kts | 238° |
| 2026-05-04 10:50 | 51.96042 | 4.44905 | -5 ft | 64 kts | 237° |
| 2026-05-04 10:51 | 51.97533 | 4.38767 | 2302 ft | 209 kts | 39° |
| 2026-05-04 10:52 | 51.98708 | 4.40359 | 2499 ft | 231 kts | 40° |
| 2026-05-04 10:52 | 51.99849 | 4.42241 | 3028 ft | 238 kts | 60° |
| 2026-05-04 10:52 | 52.00410 | 4.44848 | 3435 ft | 255 kts | 78° |
| 2026-05-04 10:54 | 52.06408 | 4.63283 | 8189 ft | 288 kts | 45° |
| 2026-05-04 10:54 | 52.07817 | 4.65634 | 8872 ft | 292 kts | 45° |
| 2026-05-04 10:56 | 52.16886 | 4.85647 | 12199 ft | 356 kts | 73° |
| 2026-05-04 10:56 | 52.17623 | 4.89527 | 12756 ft | 360 kts | 73° |
| 2026-05-04 10:56 | 52.18366 | 4.93440 | 13315 ft | 364 kts | 73° |
| 2026-05-04 10:57 | 52.19107 | 4.97354 | 13864 ft | 367 kts | 73° |
| 2026-05-04 10:57 | 52.19861 | 5.01352 | 14397 ft | 371 kts | 73° |
| 2026-05-04 10:57 | 52.20618 | 5.05381 | 14923 ft | 374 kts | 73° |
| 2026-05-04 10:57 | 52.21380 | 5.09451 | 15431 ft | 377 kts | 73° |
| 2026-05-04 10:58 | 52.22148 | 5.13562 | 15909 ft | 381 kts | 73° |
| 2026-05-04 10:58 | 52.22901 | 5.17720 | 16426 ft | 383 kts | 78° |
| 2026-05-04 10:58 | 52.23230 | 5.22033 | 16897 ft | 385 kts | 92° |
| 2026-05-04 10:58 | 52.22955 | 5.26365 | 17378 ft | 384 kts | 105° |
| 2026-05-04 10:59 | 52.22123 | 5.30422 | 17844 ft | 382 kts | 118° |
| 2026-05-04 10:59 | 52.20770 | 5.34131 | 18298 ft | 381 kts | 129° |
| 2026-05-04 10:59 | 52.19275 | 5.37554 | 18739 ft | 383 kts | 129° |
| 2026-05-04 10:59 | 52.17726 | 5.41101 | 19200 ft | 386 kts | 129° |
| 2026-05-04 11:00 | 52.16163 | 5.44674 | 19631 ft | 388 kts | 129° |
| 2026-05-04 11:01 | 52.04823 | 5.70047 | 22424 ft | 403 kts | 136° |
| 2026-05-04 11:02 | 52.02981 | 5.73496 | 22790 ft | 405 kts | 136° |
| 2026-05-04 11:02 | 52.01129 | 5.76952 | 23144 ft | 407 kts | 136° |
| 2026-05-04 11:05 | 51.74235 | 6.26700 | 27487 ft | 431 kts | 138° |
| 2026-05-04 11:06 | 51.72239 | 6.30338 | 27769 ft | 433 kts | 138° |
| 2026-05-04 11:06 | 51.70245 | 6.33888 | 27983 ft | 432 kts | 143° |
| 2026-05-04 11:06 | 51.67974 | 6.37025 | 28112 ft | 431 kts | 148° |
| 2026-05-04 11:06 | 51.65614 | 6.40057 | 28238 ft | 436 kts | 148° |
| 2026-05-04 11:08 | 51.47989 | 6.59987 | 29388 ft | 448 kts | 153° |
| 2026-05-04 11:10 | 51.38559 | 6.90918 | 31014 ft | 477 kts | 118° |
| 2026-05-04 11:12 | 51.26113 | 7.21135 | 32662 ft | 464 kts | 130° |
| 2026-05-04 11:12 | 51.24288 | 7.25376 | 32870 ft | 464 kts | 130° |
| 2026-05-04 11:12 | 51.22462 | 7.29616 | 32978 ft | 463 kts | 130° |
| 2026-05-04 11:12 | 51.20638 | 7.33841 | 33008 ft | 461 kts | 130° |
| 2026-05-04 11:13 | 51.17009 | 7.42210 | 33007 ft | 459 kts | 130° |
| 2026-05-04 11:13 | 51.13401 | 7.50500 | 33009 ft | 458 kts | 130° |
| 2026-05-04 11:14 | 51.09767 | 7.58836 | 33008 ft | 458 kts | 130° |
| 2026-05-04 11:16 | 50.95215 | 7.91925 | 33011 ft | 457 kts | 130° |
| 2026-05-04 11:16 | 50.91332 | 7.99825 | 33015 ft | 449 kts | 141° |
| 2026-05-04 11:17 | 50.86850 | 8.06679 | 33015 ft | 448 kts | 141° |
| 2026-05-04 11:19 | 50.68924 | 8.33921 | 33021 ft | 447 kts | 141° |
| 2026-05-04 11:19 | 50.64434 | 8.40702 | 33019 ft | 447 kts | 141° |
| 2026-05-04 11:20 | 50.59944 | 8.47466 | 33018 ft | 447 kts | 141° |
| 2026-05-04 11:20 | 50.55479 | 8.54163 | 33020 ft | 447 kts | 141° |
| 2026-05-04 11:22 | 50.37442 | 8.81045 | 33012 ft | 447 kts | 141° |
| 2026-05-04 11:23 | 50.33495 | 8.88551 | 33003 ft | 457 kts | 124° |
| 2026-05-04 11:25 | 50.24122 | 9.20410 | 32995 ft | 462 kts | 118° |
| 2026-05-04 11:25 | 50.21469 | 9.29474 | 32997 ft | 463 kts | 118° |
| 2026-05-04 11:27 | 50.09350 | 9.70451 | 33005 ft | 463 kts | 118° |
| 2026-05-04 11:28 | 50.06518 | 9.79434 | 33007 ft | 459 kts | 126° |
| 2026-05-04 11:28 | 50.03022 | 9.87739 | 33010 ft | 458 kts | 127° |
| 2026-05-04 11:29 | 49.99519 | 9.96008 | 33013 ft | 458 kts | 127° |
| 2026-05-04 11:29 | 49.96028 | 10.04224 | 33012 ft | 458 kts | 127° |
| 2026-05-04 11:33 | 49.71937 | 10.60328 | 33009 ft | 458 kts | 128° |
| 2026-05-04 11:33 | 49.68386 | 10.68508 | 33006 ft | 458 kts | 128° |
| 2026-05-04 11:34 | 49.64244 | 10.77981 | 33015 ft | 459 kts | 128° |
| 2026-05-04 11:34 | 49.60663 | 10.86134 | 33016 ft | 459 kts | 128° |
| 2026-05-04 11:35 | 49.57680 | 10.92921 | 33016 ft | 459 kts | 127° |
| 2026-05-04 11:35 | 49.53504 | 11.02388 | 33013 ft | 460 kts | 127° |
| 2026-05-04 11:36 | 49.50919 | 11.09576 | 33009 ft | 463 kts | 120° |
| 2026-05-04 11:36 | 49.48032 | 11.18421 | 33006 ft | 463 kts | 120° |
| 2026-05-04 11:37 | 49.45115 | 11.27292 | 33005 ft | 464 kts | 120° |
| 2026-05-04 11:37 | 49.42192 | 11.36127 | 33010 ft | 464 kts | 120° |
| 2026-05-04 11:38 | 49.39278 | 11.44908 | 33013 ft | 465 kts | 120° |
| 2026-05-04 11:38 | 49.36333 | 11.53751 | 33012 ft | 465 kts | 120° |
| 2026-05-04 11:39 | 49.33385 | 11.62582 | 33012 ft | 465 kts | 120° |
| 2026-05-04 11:41 | 49.23021 | 11.93374 | 33006 ft | 466 kts | 120° |
| 2026-05-04 11:41 | 49.20033 | 12.02174 | 33010 ft | 466 kts | 120° |
| 2026-05-04 11:42 | 49.17060 | 12.10900 | 33009 ft | 466 kts | 120° |
| 2026-05-04 11:42 | 49.14059 | 12.19672 | 33010 ft | 466 kts | 120° |
| 2026-05-04 11:43 | 49.11053 | 12.28449 | 33011 ft | 466 kts | 120° |
| 2026-05-04 11:43 | 49.08073 | 12.37144 | 33012 ft | 466 kts | 120° |
| 2026-05-04 11:44 | 49.05061 | 12.45892 | 33011 ft | 466 kts | 120° |
| 2026-05-04 11:44 | 49.02042 | 12.54614 | 33009 ft | 465 kts | 120° |
| 2026-05-04 11:45 | 48.99015 | 12.63315 | 33008 ft | 465 kts | 120° |
| 2026-05-04 11:45 | 48.95981 | 12.72010 | 33006 ft | 465 kts | 120° |
| 2026-05-04 11:46 | 48.92950 | 12.80666 | 32987 ft | 468 kts | 120° |
| 2026-05-04 11:46 | 48.89877 | 12.89417 | 32995 ft | 470 kts | 120° |
| 2026-05-04 11:47 | 48.86791 | 12.98203 | 32996 ft | 472 kts | 120° |
| 2026-05-04 11:47 | 48.83693 | 13.06985 | 32998 ft | 472 kts | 120° |
| 2026-05-04 11:48 | 48.80574 | 13.15766 | 33003 ft | 473 kts | 120° |
| 2026-05-04 11:48 | 48.77479 | 13.24468 | 33008 ft | 472 kts | 120° |
| 2026-05-04 11:49 | 48.74360 | 13.33227 | 33009 ft | 472 kts | 120° |
| 2026-05-04 11:49 | 48.71236 | 13.41960 | 33009 ft | 472 kts | 120° |
| 2026-05-04 11:50 | 48.68117 | 13.50636 | 33011 ft | 472 kts | 120° |
| 2026-05-04 11:50 | 48.64904 | 13.59292 | 33011 ft | 471 kts | 125° |
| 2026-05-04 11:51 | 48.61231 | 13.67463 | 33010 ft | 470 kts | 126° |
| 2026-05-04 11:51 | 48.57557 | 13.75620 | 33006 ft | 470 kts | 126° |
| 2026-05-04 11:52 | 48.53879 | 13.83763 | 33003 ft | 469 kts | 126° |
| 2026-05-04 11:52 | 48.50223 | 13.91841 | 32999 ft | 469 kts | 126° |
| 2026-05-04 11:53 | 48.46533 | 13.99948 | 33000 ft | 469 kts | 126° |
| 2026-05-04 11:53 | 48.42836 | 14.08030 | 32998 ft | 469 kts | 126° |
| 2026-05-04 11:55 | 48.28033 | 14.40232 | 33000 ft | 469 kts | 126° |
| 2026-05-04 11:56 | 48.24304 | 14.48278 | 33002 ft | 469 kts | 126° |
| 2026-05-04 11:56 | 48.20572 | 14.56308 | 33005 ft | 469 kts | 126° |
| 2026-05-04 11:57 | 48.16844 | 14.64328 | 33010 ft | 470 kts | 126° |
| 2026-05-04 11:57 | 48.13123 | 14.72291 | 33009 ft | 470 kts | 126° |
| 2026-05-04 11:58 | 48.09362 | 14.80307 | 33017 ft | 470 kts | 126° |
| 2026-05-04 11:58 | 48.05599 | 14.88308 | 33019 ft | 470 kts | 126° |
| 2026-05-04 11:59 | 48.01834 | 14.96306 | 33026 ft | 470 kts | 126° |
| 2026-05-04 11:59 | 47.98096 | 15.04206 | 33028 ft | 470 kts | 126° |
| 2026-05-04 12:00 | 47.94302 | 15.12199 | 33028 ft | 471 kts | 126° |
| 2026-05-04 12:00 | 47.90514 | 15.20155 | 33029 ft | 471 kts | 126° |
| 2026-05-04 12:01 | 47.86721 | 15.28113 | 33029 ft | 471 kts | 126° |
| 2026-05-04 12:02 | 47.73432 | 15.55835 | 33030 ft | 471 kts | 126° |
| 2026-05-04 12:03 | 47.69606 | 15.63747 | 33037 ft | 471 kts | 126° |
| 2026-05-04 12:03 | 47.65803 | 15.71572 | 33038 ft | 471 kts | 126° |
| 2026-05-04 12:04 | 47.61968 | 15.79446 | 33039 ft | 470 kts | 126° |
| 2026-05-04 12:04 | 47.58150 | 15.87301 | 33042 ft | 470 kts | 126° |
| 2026-05-04 12:05 | 47.54325 | 15.95157 | 33040 ft | 470 kts | 126° |
| 2026-05-04 12:05 | 47.50517 | 16.02928 | 33035 ft | 470 kts | 126° |
| 2026-05-04 12:06 | 47.46672 | 16.10734 | 33030 ft | 470 kts | 126° |
| 2026-05-04 12:06 | 47.42823 | 16.18536 | 33034 ft | 470 kts | 126° |
| 2026-05-04 12:07 | 47.38972 | 16.26322 | 33039 ft | 470 kts | 126° |
| 2026-05-04 12:07 | 47.35135 | 16.34056 | 33039 ft | 470 kts | 126° |
| 2026-05-04 12:08 | 47.31275 | 16.41834 | 33038 ft | 470 kts | 126° |
| 2026-05-04 12:08 | 47.27390 | 16.49577 | 33039 ft | 470 kts | 127° |
| 2026-05-04 12:09 | 47.23388 | 16.57204 | 33046 ft | 471 kts | 128° |
| 2026-05-04 12:09 | 47.19362 | 16.64716 | 33051 ft | 471 kts | 128° |
| 2026-05-04 12:10 | 47.15312 | 16.72283 | 33055 ft | 471 kts | 128° |
| 2026-05-04 12:10 | 47.11266 | 16.79867 | 33059 ft | 472 kts | 127° |
| 2026-05-04 12:11 | 47.07227 | 16.87461 | 33061 ft | 472 kts | 127° |
| 2026-05-04 12:11 | 47.03205 | 16.94981 | 33063 ft | 472 kts | 127° |
| 2026-05-04 12:12 | 46.99139 | 17.02537 | 33064 ft | 472 kts | 127° |
| 2026-05-04 12:12 | 46.95069 | 17.10088 | 33067 ft | 473 kts | 127° |
| 2026-05-04 12:14 | 46.78762 | 17.40186 | 33072 ft | 473 kts | 127° |
| 2026-05-04 12:15 | 46.74659 | 17.47695 | 33070 ft | 473 kts | 127° |
| 2026-05-04 12:15 | 46.70553 | 17.55201 | 33073 ft | 474 kts | 127° |
| 2026-05-04 12:16 | 46.66468 | 17.62640 | 33072 ft | 474 kts | 127° |
| 2026-05-04 12:16 | 46.62343 | 17.70113 | 33074 ft | 474 kts | 127° |
| 2026-05-04 12:17 | 46.58216 | 17.77581 | 33073 ft | 474 kts | 127° |
| 2026-05-04 12:17 | 46.54097 | 17.85047 | 33074 ft | 474 kts | 127° |
| 2026-05-04 12:18 | 46.49993 | 17.92460 | 33080 ft | 474 kts | 127° |
| 2026-05-04 12:18 | 46.45848 | 17.99904 | 33082 ft | 474 kts | 127° |
| 2026-05-04 12:19 | 46.41697 | 18.07343 | 33083 ft | 475 kts | 127° |
| 2026-05-04 12:19 | 46.37537 | 18.14781 | 33086 ft | 475 kts | 127° |
| 2026-05-04 12:20 | 46.33401 | 18.22151 | 33089 ft | 475 kts | 127° |
| 2026-05-04 12:20 | 46.29237 | 18.29559 | 33091 ft | 475 kts | 127° |
| 2026-05-04 12:21 | 46.25063 | 18.36967 | 33104 ft | 475 kts | 127° |
| 2026-05-04 12:21 | 46.20883 | 18.44366 | 33098 ft | 475 kts | 127° |
| 2026-05-04 12:22 | 46.16703 | 18.51744 | 33097 ft | 475 kts | 127° |
| 2026-05-04 12:22 | 46.12544 | 18.59058 | 33098 ft | 475 kts | 128° |
| 2026-05-04 12:23 | 46.08347 | 18.66411 | 33098 ft | 474 kts | 128° |
| 2026-05-04 12:23 | 46.04149 | 18.73735 | 33097 ft | 474 kts | 128° |
| 2026-05-04 12:24 | 45.99982 | 18.81016 | 33096 ft | 474 kts | 128° |
| 2026-05-04 12:24 | 45.95793 | 18.88321 | 33093 ft | 474 kts | 127° |
| 2026-05-04 12:25 | 45.91358 | 18.95363 | 33119 ft | 477 kts | 135° |
| 2026-05-04 12:25 | 45.88948 | 18.98639 | 33343 ft | 477 kts | 135° |
| 2026-05-04 12:25 | 45.86538 | 19.01918 | 33568 ft | 477 kts | 134° |
| 2026-05-04 12:26 | 45.84132 | 19.05198 | 33787 ft | 477 kts | 134° |
| 2026-05-04 12:26 | 45.81732 | 19.08473 | 33995 ft | 477 kts | 134° |
| 2026-05-04 12:26 | 45.79327 | 19.11749 | 34209 ft | 477 kts | 134° |
| 2026-05-04 12:26 | 45.76953 | 19.14974 | 34425 ft | 477 kts | 135° |
| 2026-05-04 12:27 | 45.74544 | 19.18240 | 34664 ft | 476 kts | 135° |
| 2026-05-04 12:27 | 45.72146 | 19.21487 | 34901 ft | 475 kts | 135° |
| 2026-05-04 12:27 | 45.69740 | 19.24733 | 35065 ft | 475 kts | 135° |
| 2026-05-04 12:27 | 45.67340 | 19.27966 | 35112 ft | 474 kts | 135° |
| 2026-05-04 12:28 | 45.62544 | 19.34427 | 35119 ft | 473 kts | 135° |
| 2026-05-04 12:28 | 45.57751 | 19.40861 | 35119 ft | 473 kts | 135° |
| 2026-05-04 12:29 | 45.52986 | 19.47242 | 35117 ft | 473 kts | 135° |
| 2026-05-04 12:29 | 45.48190 | 19.53668 | 35118 ft | 473 kts | 135° |
| 2026-05-04 12:30 | 45.43390 | 19.60083 | 35116 ft | 474 kts | 135° |
| 2026-05-04 12:30 | 45.38578 | 19.66480 | 35115 ft | 473 kts | 135° |
| 2026-05-04 12:31 | 45.33769 | 19.72861 | 35113 ft | 473 kts | 135° |
| 2026-05-04 12:31 | 45.28991 | 19.79193 | 35113 ft | 473 kts | 135° |
| 2026-05-04 12:32 | 45.21769 | 19.88726 | 35110 ft | 473 kts | 135° |
| 2026-05-04 12:33 | 45.16947 | 19.95070 | 35112 ft | 473 kts | 135° |
| 2026-05-04 12:33 | 45.12148 | 20.01362 | 35114 ft | 473 kts | 135° |
| 2026-05-04 12:34 | 45.07319 | 20.07696 | 35126 ft | 473 kts | 135° |
| 2026-05-04 12:34 | 45.02499 | 20.14011 | 35130 ft | 472 kts | 135° |
| 2026-05-04 12:35 | 44.97675 | 20.20302 | 35130 ft | 472 kts | 135° |
| 2026-05-04 12:35 | 44.92880 | 20.26534 | 35128 ft | 472 kts | 135° |
| 2026-05-04 12:36 | 44.88045 | 20.32797 | 35127 ft | 472 kts | 135° |
| 2026-05-04 12:36 | 44.83212 | 20.39046 | 35125 ft | 472 kts | 135° |
| 2026-05-04 12:37 | 44.78379 | 20.45298 | 35126 ft | 471 kts | 135° |
| 2026-05-04 12:37 | 44.73544 | 20.51530 | 35123 ft | 471 kts | 135° |
| 2026-05-04 12:38 | 44.68738 | 20.57710 | 35127 ft | 471 kts | 135° |
| 2026-05-04 12:38 | 44.63903 | 20.63917 | 35125 ft | 471 kts | 135° |
| 2026-05-04 12:39 | 44.59060 | 20.70117 | 35129 ft | 471 kts | 135° |
| 2026-05-04 12:39 | 44.54210 | 20.76303 | 35133 ft | 471 kts | 135° |
| 2026-05-04 12:40 | 44.49390 | 20.82428 | 35140 ft | 471 kts | 135° |
| 2026-05-04 12:40 | 44.44541 | 20.88580 | 35139 ft | 470 kts | 135° |
| 2026-05-04 12:41 | 44.39700 | 20.94728 | 35149 ft | 469 kts | 135° |
| 2026-05-04 12:41 | 44.34863 | 21.00850 | 35153 ft | 469 kts | 135° |
| 2026-05-04 12:42 | 44.30055 | 21.06916 | 35157 ft | 468 kts | 135° |
| 2026-05-04 12:42 | 44.25218 | 21.12991 | 35158 ft | 468 kts | 135° |
| 2026-05-04 12:43 | 44.20391 | 21.19053 | 35163 ft | 467 kts | 135° |
| 2026-05-04 12:43 | 44.15566 | 21.25089 | 35169 ft | 466 kts | 135° |
| 2026-05-04 12:44 | 44.10759 | 21.31106 | 35173 ft | 465 kts | 135° |
| 2026-05-04 12:44 | 44.05985 | 21.37059 | 35173 ft | 463 kts | 136° |
| 2026-05-04 12:45 | 44.01185 | 21.43035 | 35165 ft | 462 kts | 135° |
| 2026-05-04 12:45 | 43.96484 | 21.49103 | 35160 ft | 461 kts | 133° |
| 2026-05-04 12:46 | 43.91952 | 21.55293 | 35154 ft | 460 kts | 133° |
| 2026-05-04 12:46 | 43.87404 | 21.61523 | 35148 ft | 459 kts | 133° |
| 2026-05-04 12:47 | 43.82823 | 21.67685 | 35146 ft | 459 kts | 134° |
| 2026-05-04 12:47 | 43.78223 | 21.73809 | 35150 ft | 459 kts | 134° |
| 2026-05-04 12:48 | 43.73622 | 21.79926 | 35149 ft | 458 kts | 134° |
| 2026-05-04 12:48 | 43.69071 | 21.85986 | 35138 ft | 458 kts | 134° |
| 2026-05-04 12:49 | 43.64482 | 21.92077 | 35138 ft | 458 kts | 134° |
| 2026-05-04 12:49 | 43.59883 | 21.98161 | 35149 ft | 458 kts | 134° |
| 2026-05-04 12:50 | 43.55314 | 22.04206 | 35147 ft | 457 kts | 134° |
| 2026-05-04 12:50 | 43.50720 | 22.10262 | 35147 ft | 457 kts | 134° |
| 2026-05-04 12:51 | 43.46120 | 22.16302 | 35148 ft | 457 kts | 134° |
| 2026-05-04 12:51 | 43.41526 | 22.22341 | 35138 ft | 457 kts | 134° |
| 2026-05-04 12:52 | 43.36928 | 22.28383 | 35149 ft | 457 kts | 134° |
| 2026-05-04 12:52 | 43.32348 | 22.34361 | 35139 ft | 457 kts | 134° |
| 2026-05-04 12:53 | 43.27741 | 22.40359 | 35146 ft | 456 kts | 134° |
| 2026-05-04 12:53 | 43.23136 | 22.46354 | 35149 ft | 457 kts | 134° |
| 2026-05-04 12:54 | 43.18524 | 22.52341 | 35147 ft | 457 kts | 134° |
| 2026-05-04 12:54 | 43.13935 | 22.58276 | 35135 ft | 456 kts | 134° |
| 2026-05-04 12:55 | 43.09313 | 22.64224 | 35130 ft | 456 kts | 135° |
| 2026-05-04 12:55 | 43.04672 | 22.70134 | 35126 ft | 456 kts | 135° |
| 2026-05-04 12:56 | 43.00026 | 22.76037 | 35124 ft | 456 kts | 135° |
| 2026-05-04 12:56 | 42.95413 | 22.81901 | 35128 ft | 455 kts | 135° |
| 2026-05-04 12:57 | 42.90775 | 22.87800 | 35124 ft | 455 kts | 135° |
| 2026-05-04 12:57 | 42.86127 | 22.93687 | 35128 ft | 456 kts | 135° |
| 2026-05-04 12:58 | 42.81497 | 22.99532 | 35138 ft | 456 kts | 135° |
| 2026-05-04 12:58 | 42.76842 | 23.05399 | 35147 ft | 456 kts | 135° |
| 2026-05-04 12:59 | 42.72187 | 23.11257 | 35146 ft | 455 kts | 135° |
| 2026-05-04 12:59 | 42.67559 | 23.17070 | 35147 ft | 455 kts | 135° |
| 2026-05-04 13:00 | 42.62907 | 23.22893 | 35147 ft | 455 kts | 135° |
| 2026-05-04 13:00 | 42.58250 | 23.28721 | 35150 ft | 454 kts | 136° |
| 2026-05-04 13:01 | 42.53604 | 23.34526 | 35149 ft | 454 kts | 136° |
| 2026-05-04 13:01 | 42.48992 | 23.40275 | 35139 ft | 453 kts | 136° |
| 2026-05-04 13:02 | 42.44340 | 23.46050 | 35145 ft | 453 kts | 136° |
| 2026-05-04 13:02 | 42.39687 | 23.51807 | 35147 ft | 453 kts | 136° |
| 2026-05-04 13:03 | 42.35073 | 23.57519 | 35139 ft | 452 kts | 136° |
| 2026-05-04 13:03 | 42.30435 | 23.63248 | 35134 ft | 452 kts | 136° |
| 2026-05-04 13:04 | 42.25794 | 23.68967 | 35130 ft | 451 kts | 136° |
| 2026-05-04 13:04 | 42.21160 | 23.74666 | 35126 ft | 451 kts | 136° |
| 2026-05-04 13:05 | 42.16514 | 23.80370 | 35124 ft | 451 kts | 136° |
| 2026-05-04 13:05 | 42.11896 | 23.86007 | 35117 ft | 450 kts | 136° |
| 2026-05-04 13:06 | 42.07261 | 23.91675 | 35112 ft | 450 kts | 136° |
| 2026-05-04 13:06 | 42.02624 | 23.97340 | 35108 ft | 450 kts | 136° |
| 2026-05-04 13:07 | 41.97974 | 24.02985 | 35110 ft | 450 kts | 136° |
| 2026-05-04 13:07 | 41.93330 | 24.08627 | 35107 ft | 451 kts | 136° |
| 2026-05-04 13:08 | 41.88712 | 24.14237 | 35103 ft | 450 kts | 136° |
| 2026-05-04 13:08 | 41.84054 | 24.19857 | 35099 ft | 450 kts | 137° |
| 2026-05-04 13:09 | 41.79391 | 24.25475 | 35079 ft | 451 kts | 136° |
| 2026-05-04 13:09 | 41.74731 | 24.31096 | 35080 ft | 450 kts | 136° |
| 2026-05-04 13:10 | 41.70079 | 24.36689 | 35071 ft | 450 kts | 136° |
| 2026-05-04 13:10 | 41.65456 | 24.42237 | 35070 ft | 450 kts | 136° |
| 2026-05-04 13:11 | 41.60787 | 24.47830 | 35072 ft | 450 kts | 136° |
| 2026-05-04 13:11 | 41.56117 | 24.53410 | 35070 ft | 451 kts | 136° |
| 2026-05-04 13:12 | 41.51438 | 24.58980 | 35067 ft | 451 kts | 136° |
| 2026-05-04 13:12 | 41.46789 | 24.64519 | 35059 ft | 451 kts | 136° |
| 2026-05-04 13:13 | 41.42108 | 24.70087 | 35057 ft | 451 kts | 136° |
| 2026-05-04 13:13 | 41.37415 | 24.75649 | 35061 ft | 452 kts | 136° |
| 2026-05-04 13:14 | 41.32719 | 24.81202 | 35060 ft | 452 kts | 136° |
| 2026-05-04 13:14 | 41.28023 | 24.86757 | 35059 ft | 452 kts | 136° |
| 2026-05-04 13:15 | 41.23359 | 24.92265 | 35060 ft | 452 kts | 136° |
| 2026-05-04 13:15 | 41.18643 | 24.97811 | 35060 ft | 452 kts | 136° |
| 2026-05-04 13:16 | 41.13925 | 25.03338 | 35055 ft | 452 kts | 136° |
| 2026-05-04 13:16 | 41.09204 | 25.08860 | 35058 ft | 453 kts | 136° |
| 2026-05-04 13:17 | 41.04513 | 25.14350 | 35058 ft | 453 kts | 136° |
| 2026-05-04 13:17 | 40.99789 | 25.19875 | 35058 ft | 453 kts | 136° |
| 2026-05-04 13:18 | 40.95056 | 25.25386 | 35057 ft | 453 kts | 136° |
| 2026-05-04 13:18 | 40.90319 | 25.30891 | 35057 ft | 454 kts | 136° |
| 2026-05-04 13:19 | 40.85610 | 25.36358 | 35065 ft | 454 kts | 136° |
| 2026-05-04 13:19 | 40.80865 | 25.41849 | 35068 ft | 454 kts | 136° |
| 2026-05-04 13:20 | 40.76519 | 25.47834 | 35066 ft | 451 kts | 128° |
| 2026-05-04 13:20 | 40.72439 | 25.54115 | 35079 ft | 451 kts | 128° |
| 2026-05-04 13:21 | 40.68376 | 25.60343 | 35077 ft | 451 kts | 128° |
| 2026-05-04 13:22 | 40.60110 | 25.72975 | 35081 ft | 452 kts | 128° |
| 2026-05-04 13:22 | 40.56004 | 25.79242 | 35086 ft | 452 kts | 128° |
| 2026-05-04 13:23 | 40.51882 | 25.85495 | 35094 ft | 453 kts | 128° |
| 2026-05-04 13:23 | 40.47745 | 25.91745 | 35097 ft | 453 kts | 128° |
| 2026-05-04 13:24 | 40.43614 | 25.97930 | 35101 ft | 454 kts | 128° |
| 2026-05-04 13:24 | 40.39441 | 26.04139 | 35099 ft | 454 kts | 128° |
| 2026-05-04 13:25 | 40.33177 | 26.13447 | 35100 ft | 453 kts | 128° |
| 2026-05-04 13:25 | 40.29036 | 26.19605 | 35103 ft | 454 kts | 128° |
| 2026-05-04 13:26 | 40.24862 | 26.25801 | 35100 ft | 454 kts | 128° |
| 2026-05-04 13:26 | 40.20680 | 26.31984 | 35099 ft | 454 kts | 128° |
| 2026-05-04 13:27 | 40.16493 | 26.38169 | 35093 ft | 454 kts | 128° |
| 2026-05-04 13:27 | 40.12284 | 26.44306 | 35086 ft | 455 kts | 130° |
| 2026-05-04 13:28 | 40.07848 | 26.50132 | 35085 ft | 456 kts | 133° |
| 2026-05-04 13:28 | 40.03252 | 26.55832 | 35087 ft | 456 kts | 133° |
| 2026-05-04 13:29 | 39.98683 | 26.61574 | 35085 ft | 456 kts | 133° |
| 2026-05-04 13:29 | 39.94161 | 26.67372 | 35072 ft | 457 kts | 132° |
| 2026-05-04 13:30 | 39.89661 | 26.73156 | 35062 ft | 458 kts | 133° |
| 2026-05-04 13:30 | 39.85115 | 26.78966 | 35064 ft | 459 kts | 133° |
| 2026-05-04 13:31 | 39.80541 | 26.84780 | 35065 ft | 460 kts | 133° |
| 2026-05-04 13:31 | 39.75949 | 26.90586 | 35068 ft | 460 kts | 133° |
| 2026-05-04 13:32 | 39.71336 | 26.96283 | 35063 ft | 461 kts | 134° |
| 2026-05-04 13:32 | 39.66651 | 27.01983 | 35064 ft | 462 kts | 134° |
| 2026-05-04 13:33 | 39.61963 | 27.07696 | 35073 ft | 462 kts | 134° |
| 2026-05-04 13:33 | 39.57286 | 27.13421 | 35066 ft | 463 kts | 134° |
| 2026-05-04 13:34 | 39.52631 | 27.19119 | 35068 ft | 464 kts | 134° |
| 2026-05-04 13:34 | 39.48180 | 27.25126 | 35071 ft | 461 kts | 127° |
| 2026-05-04 13:35 | 39.42051 | 27.34737 | 35066 ft | 462 kts | 127° |
| 2026-05-04 13:36 | 39.37953 | 27.41149 | 35069 ft | 463 kts | 127° |
| 2026-05-04 13:36 | 39.33868 | 27.47510 | 35070 ft | 463 kts | 127° |
| 2026-05-04 13:37 | 39.29752 | 27.53910 | 35070 ft | 464 kts | 127° |
| 2026-05-04 13:37 | 39.25635 | 27.60317 | 35073 ft | 464 kts | 127° |
| 2026-05-04 13:38 | 39.21507 | 27.66725 | 35075 ft | 464 kts | 127° |
| 2026-05-04 13:38 | 39.17397 | 27.73074 | 35073 ft | 465 kts | 127° |
| 2026-05-04 13:39 | 39.13257 | 27.79468 | 35070 ft | 465 kts | 127° |
| 2026-05-04 13:39 | 39.09109 | 27.85864 | 35074 ft | 466 kts | 128° |
| 2026-05-04 13:40 | 39.04951 | 27.92268 | 35066 ft | 466 kts | 127° |
| 2026-05-04 13:40 | 39.00787 | 27.98666 | 35055 ft | 467 kts | 128° |
| 2026-05-04 13:41 | 38.96637 | 28.05031 | 35044 ft | 468 kts | 128° |
| 2026-05-04 13:41 | 38.92446 | 28.11433 | 35036 ft | 469 kts | 128° |
| 2026-05-04 13:42 | 38.86115 | 28.21070 | 35029 ft | 472 kts | 128° |
| 2026-05-04 13:42 | 38.81877 | 28.27522 | 35025 ft | 473 kts | 128° |
| 2026-05-04 13:43 | 38.77659 | 28.33936 | 35019 ft | 474 kts | 128° |
| 2026-05-04 13:43 | 38.73399 | 28.40393 | 35017 ft | 475 kts | 128° |
| 2026-05-04 13:44 | 38.69127 | 28.46859 | 35022 ft | 476 kts | 129° |
| 2026-05-04 13:44 | 38.64843 | 28.53319 | 35024 ft | 476 kts | 129° |
| 2026-05-04 13:45 | 38.60577 | 28.59733 | 35015 ft | 477 kts | 129° |
| 2026-05-04 13:45 | 38.55738 | 28.65526 | 35011 ft | 479 kts | 144° |
| 2026-05-04 13:46 | 38.50268 | 28.70414 | 35003 ft | 480 kts | 144° |
| 2026-05-04 13:46 | 38.44794 | 28.75311 | 35010 ft | 481 kts | 144° |
| 2026-05-04 13:47 | 38.39350 | 28.80173 | 35013 ft | 481 kts | 144° |
| 2026-05-04 13:47 | 38.33867 | 28.85052 | 35011 ft | 481 kts | 144° |
| 2026-05-04 13:48 | 38.28379 | 28.89941 | 35011 ft | 481 kts | 144° |
| 2026-05-04 13:48 | 38.22888 | 28.94827 | 35003 ft | 482 kts | 144° |
| 2026-05-04 13:49 | 38.17430 | 28.99669 | 35000 ft | 482 kts | 144° |
| 2026-05-04 13:49 | 38.11913 | 29.04552 | 35002 ft | 483 kts | 144° |
| 2026-05-04 13:50 | 38.07325 | 29.08599 | 34995 ft | 484 kts | 144° |
| 2026-05-04 13:50 | 38.00854 | 29.14298 | 35000 ft | 485 kts | 144° |
| 2026-05-04 13:51 | 37.96251 | 29.18353 | 34985 ft | 485 kts | 145° |
| 2026-05-04 13:51 | 37.90698 | 29.23244 | 34976 ft | 487 kts | 146° |
| 2026-05-04 13:52 | 37.81415 | 29.31377 | 34978 ft | 492 kts | 146° |
| 2026-05-04 13:52 | 37.78599 | 29.33844 | 34510 ft | 495 kts | 146° |
| 2026-05-04 13:53 | 37.75765 | 29.36319 | 33732 ft | 496 kts | 146° |
| 2026-05-04 13:53 | 37.72956 | 29.38770 | 32939 ft | 497 kts | 145° |
| 2026-05-04 13:53 | 37.70102 | 29.41252 | 32145 ft | 498 kts | 144° |
| 2026-05-04 13:54 | 37.64400 | 29.46216 | 30551 ft | 498 kts | 143° |
| 2026-05-04 13:54 | 37.61550 | 29.48703 | 29721 ft | 498 kts | 143° |
| 2026-05-04 13:54 | 37.55842 | 29.53670 | 27944 ft | 499 kts | 143° |
| 2026-05-04 13:55 | 37.52980 | 29.56155 | 26924 ft | 501 kts | 143° |
| 2026-05-04 13:55 | 37.48181 | 29.60319 | 25128 ft | 506 kts | 144° |
| 2026-05-04 13:55 | 37.44342 | 29.63641 | 24104 ft | 500 kts | 145° |
| 2026-05-04 13:56 | 37.41528 | 29.66070 | 23948 ft | 481 kts | 145° |
| 2026-05-04 13:56 | 37.38814 | 29.68409 | 23833 ft | 464 kts | 145° |
| 2026-05-04 13:56 | 37.34464 | 29.72029 | 23621 ft | 439 kts | 150° |
| 2026-05-04 13:57 | 37.31776 | 29.73705 | 23494 ft | 424 kts | 157° |
| 2026-05-04 13:57 | 37.29127 | 29.75163 | 23345 ft | 407 kts | 157° |
| 2026-05-04 13:58 | 37.21947 | 29.79921 | 22438 ft | 374 kts | 142° |
| 2026-05-04 13:58 | 37.18274 | 29.84226 | 22270 ft | 353 kts | 128° |
| 2026-05-04 13:58 | 37.16796 | 29.86638 | 22190 ft | 353 kts | 122° |
| 2026-05-04 13:59 | 37.15527 | 29.89258 | 22107 ft | 351 kts | 115° |
| 2026-05-04 13:59 | 37.14499 | 29.92024 | 22037 ft | 349 kts | 108° |
| 2026-05-04 13:59 | 37.13175 | 29.97823 | 21883 ft | 344 kts | 95° |
| 2026-05-04 14:00 | 37.12879 | 30.00786 | 21806 ft | 342 kts | 92° |
| 2026-05-04 14:00 | 37.12149 | 30.06700 | 21655 ft | 344 kts | 96° |
| 2026-05-04 14:00 | 37.11700 | 30.09648 | 21577 ft | 344 kts | 97° |
| 2026-05-04 14:01 | 37.11246 | 30.12552 | 21502 ft | 344 kts | 97° |
| 2026-05-04 14:01 | 37.10790 | 30.15485 | 21417 ft | 344 kts | 97° |
| 2026-05-04 14:01 | 37.09904 | 30.21364 | 21271 ft | 343 kts | 97° |
| 2026-05-04 14:02 | 37.09476 | 30.24297 | 21197 ft | 343 kts | 97° |
| 2026-05-04 14:02 | 37.09049 | 30.27232 | 21117 ft | 342 kts | 97° |
| 2026-05-04 14:02 | 37.08623 | 30.30145 | 21039 ft | 339 kts | 96° |
| 2026-05-04 14:02 | 37.08194 | 30.33053 | 20964 ft | 341 kts | 97° |
| 2026-05-04 14:03 | 37.07764 | 30.35935 | 20887 ft | 340 kts | 97° |
| 2026-05-04 14:03 | 37.07334 | 30.38841 | 20803 ft | 339 kts | 97° |
| 2026-05-04 14:03 | 37.06902 | 30.41739 | 20738 ft | 337 kts | 96° |
| 2026-05-04 14:03 | 37.06471 | 30.44628 | 20593 ft | 337 kts | 97° |
| 2026-05-04 14:04 | 37.05610 | 30.50324 | 20082 ft | 329 kts | 97° |
| 2026-05-04 14:04 | 37.05190 | 30.53129 | 19829 ft | 325 kts | 97° |
| 2026-05-04 14:04 | 37.04766 | 30.55890 | 19571 ft | 323 kts | 100° |
| 2026-05-04 14:05 | 37.02959 | 30.61015 | 19082 ft | 324 kts | 124° |
| 2026-05-04 14:05 | 37.01519 | 30.63174 | 18841 ft | 322 kts | 136° |
| 2026-05-04 14:05 | 36.99822 | 30.64937 | 18585 ft | 321 kts | 147° |
| 2026-05-04 14:06 | 36.97883 | 30.66308 | 18163 ft | 324 kts | 159° |
| 2026-05-04 14:06 | 36.95725 | 30.67219 | 17534 ft | 331 kts | 171° |
| 2026-05-04 14:06 | 36.93425 | 30.67597 | 16888 ft | 337 kts | 182° |
| 2026-05-04 14:06 | 36.91065 | 30.67471 | 16248 ft | 343 kts | 188° |
| 2026-05-04 14:07 | 36.88673 | 30.67262 | 15741 ft | 346 kts | 187° |
| 2026-05-04 14:07 | 36.86256 | 30.67061 | 15214 ft | 350 kts | 187° |
| 2026-05-04 14:07 | 36.83822 | 30.66864 | 14742 ft | 350 kts | 187° |
| 2026-05-04 14:07 | 36.81426 | 30.66673 | 14288 ft | 340 kts | 186° |
| 2026-05-04 14:08 | 36.79121 | 30.66491 | 13799 ft | 332 kts | 186° |
| 2026-05-04 14:08 | 36.76852 | 30.66309 | 13343 ft | 323 kts | 186° |
| 2026-05-04 14:08 | 36.74630 | 30.66126 | 12883 ft | 316 kts | 186° |
| 2026-05-04 14:08 | 36.72465 | 30.65946 | 12434 ft | 309 kts | 186° |
| 2026-05-04 14:09 | 36.68339 | 30.65987 | 11952 ft | 285 kts | 162° |
| 2026-05-04 14:09 | 36.66696 | 30.67259 | 11787 ft | 278 kts | 130° |
| 2026-05-04 14:10 | 36.65729 | 30.71771 | 10627 ft | 291 kts | 71° |
| 2026-05-04 14:10 | 36.66694 | 30.73927 | 10084 ft | 287 kts | 40° |
| 2026-05-04 14:10 | 36.68363 | 30.75155 | 9688 ft | 278 kts | 13° |
| 2026-05-04 14:10 | 36.70239 | 30.75715 | 9280 ft | 277 kts | 10° |
| 2026-05-04 14:11 | 36.72120 | 30.76255 | 8873 ft | 278 kts | 10° |
| 2026-05-04 14:11 | 36.75882 | 30.77353 | 8074 ft | 277 kts | 10° |
| 2026-05-04 14:11 | 36.77759 | 30.77903 | 7670 ft | 277 kts | 11° |
| 2026-05-04 14:12 | 36.79630 | 30.78452 | 7263 ft | 276 kts | 11° |
| 2026-05-04 14:12 | 36.81496 | 30.79004 | 6866 ft | 275 kts | 11° |
| 2026-05-04 14:12 | 36.85183 | 30.80089 | 6073 ft | 273 kts | 11° |
| 2026-05-04 14:13 | 36.87027 | 30.80627 | 5669 ft | 272 kts | 11° |
| 2026-05-04 14:13 | 36.88851 | 30.81158 | 5492 ft | 263 kts | 11° |
| 2026-05-04 14:13 | 36.90575 | 30.81684 | 5426 ft | 251 kts | 17° |
| 2026-05-04 14:13 | 36.91954 | 30.82905 | 5351 ft | 243 kts | 54° |
| 2026-05-04 14:14 | 36.92408 | 30.84868 | 5265 ft | 244 kts | 93° |
| 2026-05-04 14:14 | 36.90314 | 30.87846 | 5082 ft | 245 kts | 174° |
| 2026-05-04 14:14 | 36.88686 | 30.87525 | 4997 ft | 239 kts | 214° |
| 2026-05-04 14:15 | 36.86192 | 30.84858 | 4828 ft | 237 kts | 225° |
| 2026-05-04 14:15 | 36.83764 | 30.82093 | 4647 ft | 236 kts | 225° |
| 2026-05-04 14:16 | 36.81060 | 30.79937 | 4407 ft | 240 kts | 184° |
| 2026-05-04 14:16 | 36.79462 | 30.80432 | 4169 ft | 241 kts | 149° |
| 2026-05-04 14:17 | 36.76926 | 30.83169 | 3568 ft | 241 kts | 135° |
| 2026-05-04 14:17 | 36.75740 | 30.84647 | 3261 ft | 240 kts | 135° |
| 2026-05-04 14:17 | 36.72928 | 30.86248 | 2967 ft | 217 kts | 190° |
| 2026-05-04 14:18 | 36.71583 | 30.85564 | 2876 ft | 206 kts | 220° |
| 2026-05-04 14:18 | 36.70376 | 30.82582 | 2708 ft | 197 kts | 272° |
| 2026-05-04 14:19 | 36.71481 | 30.79600 | 2527 ft | 195 kts | 321° |
| 2026-05-04 14:19 | 36.72684 | 30.78843 | 2509 ft | 196 kts | 346° |
| 2026-05-04 14:19 | 36.74049 | 30.78788 | 2514 ft | 198 kts | 5° |
| 2026-05-04 14:19 | 36.75418 | 30.78978 | 2512 ft | 198 kts | 4° |
| 2026-05-04 14:20 | 36.76791 | 30.79169 | 2351 ft | 198 kts | 3° |
| 2026-05-04 14:20 | 36.78140 | 30.79355 | 2144 ft | 192 kts | 3° |
| 2026-05-04 14:20 | 36.79427 | 30.79532 | 1883 ft | 186 kts | 2° |
| 2026-05-04 14:21 | 36.81864 | 30.79869 | 1432 ft | 160 kts | 1° |
| 2026-05-04 14:21 | 36.82905 | 30.80014 | 1214 ft | 143 kts | 360° |
| 2026-05-04 14:21 | 36.83876 | 30.80147 | 1028 ft | 138 kts | 360° |
| 2026-05-04 14:21 | 36.84820 | 30.80275 | 852 ft | 135 kts | 359° |
| 2026-05-04 14:22 | 36.85757 | 30.80402 | 671 ft | 136 kts | 359° |
| 2026-05-04 14:22 | 36.86691 | 30.80535 | 542 ft | 133 kts | 0° |
| 2026-05-04 14:22 | 36.87612 | 30.80659 | 354 ft | 134 kts | 0° |
| 2026-05-04 14:22 | 36.88523 | 30.80786 | 210 ft | 127 kts | 0° |
| 2026-05-04 14:23 | 36.89691 | 30.80930 | 190 ft | 31 kts | 6° |
| 2026-05-04 14:23 | 36.89897 | 30.80933 | 198 ft | 28 kts | 347° |
| 2026-05-04 14:23 | 36.90073 | 30.80849 | 196 ft | 25 kts | 336° |
| 2026-05-04 14:24 | 36.90204 | 30.80778 | 196 ft | 21 kts | 336° |
| 2026-05-04 14:24 | 36.90316 | 30.80676 | 196 ft | 21 kts | 287° |
| 2026-05-04 14:24 | 36.90336 | 30.80492 | 192 ft | 22 kts | 277° |
| 2026-05-04 14:24 | 36.90356 | 30.80302 | 198 ft | 23 kts | 275° |
| 2026-05-04 14:25 | 36.90368 | 30.80101 | 195 ft | 24 kts | 276° |
| 2026-05-04 14:25 | 36.90402 | 30.79730 | 191 ft | 16 kts | 276° |
| 2026-05-04 14:25 | 36.90346 | 30.79634 | 203 ft | 17 kts | 187° |
| 2026-05-04 14:26 | 36.90238 | 30.79620 | 191 ft | 15 kts | 186° |
| 2026-05-04 14:26 | 36.90143 | 30.79607 | 191 ft | 13 kts | 186° |
| 2026-05-04 14:26 | 36.90059 | 30.79596 | 202 ft | 11 kts | 186° |
| 2026-05-04 14:26 | 36.89971 | 30.79584 | 191 ft | 14 kts | 187° |
| 2026-05-04 14:27 | 36.89871 | 30.79571 | 204 ft | 15 kts | 173° |
| 2026-05-04 14:27 | 36.89835 | 30.79692 | 196 ft | 17 kts | 97° |
| 2026-05-04 14:27 | 36.89818 | 30.79845 | 201 ft | 16 kts | 101° |
| 2026-05-04 14:27 | 36.89783 | 30.79939 | 194 ft | 10 kts | 108° |
| 2026-05-04 14:28 | 36.89783 | 30.80008 | 198 ft | 3 kts | 89° |
| 2026-05-04 14:28 | 36.89783 | 30.80018 | 192 ft | 0 kts | 89° |